Time;durP1;ratioP1;P1;durP2;ratioP2;P2;SDS_P1;SDS_P2;PMS_P1;PMS_P2;Temp;Humidity;BMP_temperature;BMP_pressure;BME280_temperature;BME280_humidity;BME280_pressure;Samples;Min_cycle;Max_cycle;Signal;HPM_P1;HPM_P2
2022/03/15 00:01:21;;;;;;;17.80;9.52;;;4.30;99.90;;;;;;5040505;28;20032;-74
2022/03/15 00:03:48;;;;;;;18.40;9.73;;;4.30;99.90;;;;;;5024100;28;20040;-75
2022/03/15 00:06:14;;;;;;;20.75;10.38;;;4.30;99.90;;;;;;5024738;28;20033;-75
2022/03/15 00:08:41;;;;;;;17.92;9.63;;;4.30;99.90;;;;;;5040541;28;20040;-74
2022/03/15 00:11:07;;;;;;;17.27;9.48;;;4.30;99.90;;;;;;5023234;28;20068;-75
2022/03/15 00:13:38;;;;;;;17.42;9.63;;;4.30;99.90;;;;;;5057539;28;20029;-73
2022/03/15 00:16:04;;;;;;;16.58;8.93;;;4.40;99.90;;;;;;5039965;28;20033;-75
2022/03/15 00:18:31;;;;;;;13.88;8.45;;;4.30;99.90;;;;;;5039878;28;20025;-72
2022/03/15 00:21:05;;;;;;;13.85;7.90;;;4.30;99.90;;;;;;5040125;28;20072;-73
2022/03/15 00:23:31;;;;;;;12.35;9.27;;;4.30;99.90;;;;;;5040020;28;20042;-75
2022/03/15 00:26:00;;;;;;;13.77;8.30;;;4.30;99.90;;;;;;5038898;28;20059;-75
2022/03/15 00:28:26;;;;;;;15.48;8.38;;;4.30;99.90;;;;;;5057568;28;20049;-73
2022/03/15 00:30:53;;;;;;;12.35;8.32;;;4.30;99.90;;;;;;5036577;28;20026;-73
2022/03/15 00:33:19;;;;;;;16.13;8.10;;;4.30;99.90;;;;;;5039854;28;20045;-75
2022/03/15 00:35:47;;;;;;;13.18;8.27;;;4.20;99.90;;;;;;5057238;28;20083;-72
2022/03/15 00:38:13;;;;;;;13.82;7.90;;;4.30;99.90;;;;;;5038895;28;20105;-75
2022/03/15 00:40:40;;;;;;;13.77;8.50;;;4.30;99.90;;;;;;5023307;28;20034;-72
2022/03/15 00:43:06;;;;;;;16.45;9.43;;;4.30;99.90;;;;;;5039631;28;20094;-74
2022/03/15 00:45:32;;;;;;;12.40;8.65;;;4.30;99.90;;;;;;5040003;28;20041;-75
2022/03/15 00:47:59;;;;;;;15.90;9.10;;;4.30;99.90;;;;;;5056220;28;20083;-76
2022/03/15 00:50:27;;;;;;;13.63;8.77;;;4.30;99.90;;;;;;5023347;28;20041;-72
2022/03/15 00:52:53;;;;;;;12.93;8.07;;;4.30;99.90;;;;;;5039633;28;20029;-75
2022/03/15 00:55:19;;;;;;;14.07;8.75;;;4.30;99.90;;;;;;5006207;28;20076;-75
2022/03/15 00:57:46;;;;;;;15.95;8.55;;;4.30;99.90;;;;;;5039189;28;20052;-74
2022/03/15 01:00:13;;;;;;;17.35;9.88;;;4.20;99.90;;;;;;5056641;28;20097;-72
2022/03/15 01:02:39;;;;;;;14.57;8.90;;;4.20;99.90;;;;;;5038805;28;20192;-74
2022/03/15 01:05:06;;;;;;;13.55;9.02;;;4.20;99.90;;;;;;5023439;28;20044;-72
2022/03/15 01:07:32;;;;;;;15.20;8.73;;;4.10;99.90;;;;;;5022220;28;20036;-73
2022/03/15 01:09:58;;;;;;;14.15;9.60;;;4.10;99.90;;;;;;5038796;28;20064;-72
2022/03/15 01:12:25;;;;;;;15.25;9.60;;;4.10;99.90;;;;;;5038716;28;20045;-73
2022/03/15 01:14:51;;;;;;;19.20;9.90;;;4.10;99.90;;;;;;5022519;28;20067;-73
2022/03/15 01:17:17;;;;;;;17.23;10.02;;;4.10;99.90;;;;;;5019395;28;20038;-75
2022/03/15 01:19:43;;;;;;;15.15;10.35;;;4.00;99.90;;;;;;5035176;28;20080;-72
2022/03/15 01:22:09;;;;;;;16.17;10.05;;;4.00;99.90;;;;;;5035378;28;20087;-73
2022/03/15 01:24:36;;;;;;;18.10;10.02;;;4.00;99.90;;;;;;5035286;28;20045;-75
2022/03/15 01:27:02;;;;;;;15.68;9.73;;;4.00;99.90;;;;;;5019592;28;20073;-75
2022/03/15 01:29:28;;;;;;;13.88;8.70;;;3.90;99.90;;;;;;5035361;28;20049;-72
2022/03/15 01:31:54;;;;;;;14.38;9.05;;;4.00;99.90;;;;;;5036171;28;20168;-72
2022/03/15 01:34:22;;;;;;;16.10;10.00;;;3.90;99.90;;;;;;5035823;28;20030;-74
2022/03/15 01:36:52;;;;;;;14.15;8.40;;;3.80;99.90;;;;;;5036274;28;20042;-72
2022/03/15 01:39:18;;;;;;;13.32;9.20;;;3.90;99.90;;;;;;5034850;28;20044;-72
2022/03/15 01:41:45;;;;;;;13.65;9.25;;;3.90;99.90;;;;;;5036381;28;20057;-74
2022/03/15 01:44:16;;;;;;;11.93;8.30;;;3.80;99.90;;;;;;5018421;28;20033;-72
2022/03/15 01:46:50;;;;;;;12.55;8.63;;;3.80;99.90;;;;;;5035095;28;20038;-74
2022/03/15 01:49:16;;;;;;;12.90;8.70;;;3.80;99.90;;;;;;5034036;28;20114;-73
2022/03/15 01:51:43;;;;;;;15.07;9.20;;;3.70;99.90;;;;;;5018559;28;20034;-74
2022/03/15 01:54:11;;;;;;;11.07;8.32;;;3.70;99.90;;;;;;5034860;28;20038;-72
2022/03/15 01:56:42;;;;;;;9.52;7.93;;;3.70;99.90;;;;;;5034707;28;20048;-72
2022/03/15 01:59:16;;;;;;;10.07;7.80;;;3.70;99.90;;;;;;5035103;28;20567;-73
2022/03/15 02:01:43;;;;;;;13.02;8.55;;;3.70;99.90;;;;;;5031733;28;20093;-75
2022/03/15 02:04:10;;;;;;;11.75;8.07;;;3.70;99.90;;;;;;5018401;28;20034;-75
2022/03/15 02:06:44;;;;;;;10.98;7.32;;;3.60;99.90;;;;;;5034869;28;20069;-75
2022/03/15 02:09:14;;;;;;;9.32;7.55;;;3.60;99.90;;;;;;5035205;28;20030;-75
2022/03/15 02:11:42;;;;;;;;;;;3.60;99.90;;;;;;5018381;28;20116;-73
2022/03/15 02:14:08;;;;;;;11.82;8.27;;;3.60;99.90;;;;;;5035074;28;19964;-74
2022/03/15 02:16:34;;;;;;;13.10;8.00;;;3.50;99.90;;;;;;5035174;28;20080;-73
2022/03/15 02:19:02;;;;;;;10.35;8.18;;;3.60;99.90;;;;;;5035753;28;20049;-75
2022/03/15 02:21:29;;;;;;;12.65;9.27;;;3.50;99.90;;;;;;5034458;28;20060;-72
2022/03/15 02:23:56;;;;;;;9.90;7.97;;;3.50;99.90;;;;;;5034532;28;20064;-75
2022/03/15 02:26:22;;;;;;;11.05;8.02;;;3.50;99.90;;;;;;5017953;28;20042;-75
2022/03/15 02:28:48;;;;;;;11.80;8.23;;;3.50;99.90;;;;;;5034970;28;20026;-72
2022/03/15 02:31:15;;;;;;;10.95;7.60;;;3.50;99.90;;;;;;5017976;28;20033;-72
2022/03/15 02:33:41;;;;;;;11.43;8.63;;;3.40;99.90;;;;;;5034504;28;20037;-75
2022/03/15 02:36:07;;;;;;;9.63;7.38;;;3.50;99.90;;;;;;5018099;28;20061;-73
2022/03/15 02:38:35;;;;;;;13.98;9.40;;;3.40;99.90;;;;;;5035382;28;20022;-75
2022/03/15 02:41:01;;;;;;;12.85;9.43;;;3.30;99.90;;;;;;5034360;28;20041;-73
2022/03/15 02:43:27;;;;;;;11.77;7.95;;;3.30;99.90;;;;;;5017759;28;20037;-73
2022/03/15 02:45:53;;;;;;;14.88;8.80;;;3.30;99.90;;;;;;5033962;28;20038;-75
2022/03/15 02:48:19;;;;;;;10.90;8.00;;;3.30;99.90;;;;;;5034406;28;20038;-73
2022/03/15 02:50:45;;;;;;;12.93;8.10;;;3.30;99.90;;;;;;5034374;28;20033;-74
2022/03/15 02:53:11;;;;;;;10.93;7.95;;;3.30;99.90;;;;;;5034181;28;20053;-72
2022/03/15 02:55:37;;;;;;;11.65;7.93;;;3.20;99.90;;;;;;5034252;28;20113;-73
2022/03/15 02:58:03;;;;;;;11.80;7.70;;;3.20;99.90;;;;;;5017295;28;20034;-73
2022/03/15 03:00:29;;;;;;;12.82;7.25;;;3.20;99.90;;;;;;5033520;28;20072;-74
2022/03/15 03:02:55;;;;;;;11.15;7.72;;;3.30;99.90;;;;;;5032665;28;20042;-74
2022/03/15 03:05:22;;;;;;;11.32;7.72;;;3.30;99.90;;;;;;5034494;28;20041;-73
2022/03/15 03:07:48;;;;;;;9.30;6.93;;;3.20;99.90;;;;;;5034067;28;20038;-73
2022/03/15 03:10:17;;;;;;;9.23;7.05;;;3.20;99.90;;;;;;5034049;28;20081;-73
2022/03/15 03:12:45;;;;;;;8.65;7.00;;;3.20;99.90;;;;;;5034477;28;20048;-75
2022/03/15 03:15:12;;;;;;;10.52;7.40;;;3.20;99.90;;;;;;5049821;28;20098;-73
2022/03/15 03:17:41;;;;;;;12.15;7.47;;;3.20;99.90;;;;;;4983890;28;20054;-73
2022/03/15 03:20:13;;;;;;;13.00;7.32;;;3.10;99.90;;;;;;5033718;28;20049;-75
2022/03/15 03:22:40;;;;;;;9.90;6.90;;;3.10;99.90;;;;;;5050185;28;20042;-73
2022/03/15 03:25:07;;;;;;;9.23;6.25;;;3.10;99.90;;;;;;5033933;28;20607;-74
2022/03/15 03:27:33;;;;;;;8.05;6.30;;;3.10;99.90;;;;;;5000731;28;20037;-72
2022/03/15 03:30:00;;;;;;;7.97;6.95;;;3.10;99.90;;;;;;5033709;28;20025;-73
2022/03/15 03:32:27;;;;;;;8.63;6.50;;;3.10;99.90;;;;;;5034049;28;20034;-74
2022/03/15 03:34:56;;;;;;;8.68;6.20;;;3.10;99.90;;;;;;5033160;28;20048;-74
2022/03/15 03:37:24;;;;;;;10.35;6.60;;;3.10;99.90;;;;;;5033414;28;20022;-75
2022/03/15 03:39:53;;;;;;;8.18;5.95;;;3.10;99.90;;;;;;5033764;28;20064;-75
2022/03/15 03:42:19;;;;;;;7.93;6.40;;;3.10;99.90;;;;;;5033707;28;20072;-74
2022/03/15 03:44:46;;;;;;;6.50;5.80;;;3.10;99.90;;;;;;5017137;28;20046;-75
2022/03/15 03:47:12;;;;;;;7.50;5.78;;;3.10;99.90;;;;;;5017069;28;20042;-73
2022/03/15 03:49:39;;;;;;;7.40;5.90;;;3.10;99.90;;;;;;5017201;28;20034;-74
2022/03/15 03:52:06;;;;;;;7.90;5.47;;;3.10;99.90;;;;;;5032610;28;20037;-74
2022/03/15 03:54:33;;;;;;;7.18;6.03;;;3.20;99.90;;;;;;5032850;28;20069;-72
2022/03/15 03:56:59;;;;;;;6.93;6.10;;;3.20;99.90;;;;;;5033272;28;20068;-73
2022/03/15 03:59:25;;;;;;;7.07;6.00;;;3.20;99.90;;;;;;5016637;28;20464;-72
2022/03/15 04:01:51;;;;;;;7.63;6.68;;;3.20;99.90;;;;;;5033106;28;20045;-73
2022/03/15 04:04:20;;;;;;;8.85;7.40;;;3.20;99.90;;;;;;5016785;28;20049;-72
2022/03/15 04:06:46;;;;;;;8.32;7.13;;;3.20;99.90;;;;;;5032927;28;20488;-73
2022/03/15 04:09:12;;;;;;;9.63;7.20;;;3.30;99.90;;;;;;5032689;28;20026;-74
2022/03/15 04:11:40;;;;;;;11.05;8.15;;;3.30;99.90;;;;;;5016337;28;20041;-74
2022/03/15 04:14:09;;;;;;;12.30;8.38;;;3.30;99.90;;;;;;5019895;28;20053;-75
2022/03/15 04:16:35;;;;;;;21.23;9.68;;;3.30;99.90;;;;;;5040593;28;20113;-73
2022/03/15 04:19:01;;;;;;;13.68;8.88;;;3.30;99.90;;;;;;5023058;28;20041;-75
2022/03/15 04:21:27;;;;;;;13.90;9.05;;;3.30;99.90;;;;;;5023703;28;20045;-75
2022/03/15 04:23:54;;;;;;;13.65;8.85;;;3.30;99.90;;;;;;5040325;28;20044;-72
2022/03/15 04:26:25;;;;;;;13.45;9.48;;;3.30;99.90;;;;;;5039695;28;20049;-74
2022/03/15 04:28:53;;;;;;;16.52;10.68;;;3.30;99.90;;;;;;5057370;28;20041;-72
2022/03/15 04:31:19;;;;;;;17.77;11.48;;;3.30;99.90;;;;;;5039357;28;20029;-73
2022/03/15 04:33:45;;;;;;;20.88;12.55;;;3.40;99.90;;;;;;5056596;28;20043;-73
2022/03/15 04:36:11;;;;;;;20.60;12.05;;;3.40;99.90;;;;;;5057140;28;20033;-73
2022/03/15 04:38:38;;;;;;;20.58;12.82;;;3.50;99.90;;;;;;5003757;28;20072;-72
2022/03/15 04:41:07;;;;;;;22.15;12.60;;;3.50;99.90;;;;;;5029208;28;20041;-73
2022/03/15 04:43:34;;;;;;;23.90;14.55;;;3.50;99.90;;;;;;5023035;28;20044;-73
2022/03/15 04:46:00;;;;;;;25.90;12.90;;;3.50;99.90;;;;;;5039738;28;20042;-74
2022/03/15 04:48:27;;;;;;;22.10;14.30;;;3.50;99.90;;;;;;5039543;28;20033;-72
2022/03/15 04:50:53;;;;;;;24.55;13.18;;;3.60;99.90;;;;;;5039641;28;20033;-73
2022/03/15 04:53:19;;;;;;;26.73;14.25;;;3.60;99.90;;;;;;5023021;28;20030;-74
2022/03/15 04:55:46;;;;;;;21.65;14.27;;;3.60;99.90;;;;;;5039510;28;20064;-73
2022/03/15 04:58:12;;;;;;;28.00;16.50;;;3.60;99.90;;;;;;5023379;28;20048;-72
2022/03/15 05:00:38;;;;;;;27.73;16.08;;;3.70;99.90;;;;;;5022480;28;20037;-72
2022/03/15 05:03:04;;;;;;;32.28;17.13;;;3.70;99.90;;;;;;5022994;28;20120;-72
2022/03/15 05:05:30;;;;;;;31.35;17.67;;;3.80;99.90;;;;;;5056403;28;20048;-73
2022/03/15 05:07:56;;;;;;;32.00;19.38;;;3.80;99.90;;;;;;5057101;28;20037;-73
2022/03/15 05:13:07;;;;;;;36.63;19.45;;;3.90;99.90;;;;;;5056940;28;20039;-75
2022/03/15 05:15:33;;;;;;;37.60;20.67;;;3.90;99.90;;;;;;5023378;28;20399;-74
2022/03/15 05:18:01;;;;;;;35.88;20.00;;;3.90;99.90;;;;;;5018642;28;20061;-73
2022/03/15 05:20:29;;;;;;;40.78;21.80;;;4.00;99.90;;;;;;5035259;28;20045;-72
2022/03/15 05:22:56;;;;;;;48.17;23.85;;;4.00;99.90;;;;;;5035935;28;20092;-74
2022/03/15 05:25:22;;;;;;;38.30;21.23;;;4.00;99.90;;;;;;5018506;28;20068;-75
2022/03/15 05:27:48;;;;;;;36.50;20.42;;;4.10;99.90;;;;;;5018853;28;20044;-72
2022/03/15 05:30:16;;;;;;;34.10;19.67;;;4.10;99.90;;;;;;5018830;28;20034;-73
2022/03/15 05:32:42;;;;;;;36.22;18.55;;;4.10;99.90;;;;;;5035614;28;20084;-73
2022/03/15 05:35:08;;;;;;;34.30;18.85;;;4.10;99.90;;;;;;5035823;28;20038;-73
2022/03/15 05:37:34;;;;;;;31.40;19.15;;;4.10;99.90;;;;;;5034628;28;20037;-75
2022/03/15 05:40:00;;;;;;;35.35;20.33;;;4.20;99.90;;;;;;5018404;28;20065;-75
2022/03/15 05:42:26;;;;;;;36.70;21.98;;;4.20;99.90;;;;;;5036067;28;20068;-73
2022/03/15 05:44:52;;;;;;;39.08;22.58;;;4.20;99.90;;;;;;5036953;28;20041;-75
2022/03/15 05:47:18;;;;;;;57.30;29.30;;;4.20;99.90;;;;;;5035464;28;20037;-73
2022/03/15 05:49:44;;;;;;;45.40;25.33;;;4.30;99.90;;;;;;5035267;28;20030;-75
2022/03/15 05:52:10;;;;;;;58.38;29.00;;;4.30;99.90;;;;;;5018845;28;20045;-73
2022/03/15 05:54:36;;;;;;;54.47;29.65;;;4.30;99.90;;;;;;5035152;28;20477;-73
2022/03/15 05:57:03;;;;;;;56.47;31.05;;;4.40;99.90;;;;;;5034922;28;20044;-73
2022/03/15 05:59:29;;;;;;;65.65;33.08;;;4.40;99.90;;;;;;5034872;28;20037;-75
2022/03/15 06:01:56;;;;;;;57.40;31.50;;;4.40;99.90;;;;;;5036062;28;20046;-73
2022/03/15 06:04:26;;;;;;;58.13;31.63;;;4.40;99.90;;;;;;5036129;28;20064;-73
2022/03/15 06:06:57;;;;;;;70.18;34.75;;;4.50;99.90;;;;;;5034880;28;20028;-73
2022/03/15 06:09:24;;;;;;;60.20;33.00;;;4.50;99.90;;;;;;5035672;28;20038;-75
2022/03/15 06:11:51;;;;;;;61.78;32.85;;;4.60;99.90;;;;;;5036334;28;20041;-73
2022/03/15 06:14:19;;;;;;;68.43;33.60;;;4.60;99.90;;;;;;5035894;28;20046;-73
2022/03/15 06:16:45;;;;;;;67.43;36.35;;;4.60;99.90;;;;;;5040175;28;20093;-73
2022/03/15 06:19:11;;;;;;;66.88;33.53;;;4.60;99.90;;;;;;5038027;28;20046;-73
2022/03/15 06:21:38;;;;;;;56.10;32.25;;;4.70;99.90;;;;;;5055349;28;20121;-73
2022/03/15 06:24:04;;;;;;;78.07;37.83;;;4.70;99.90;;;;;;5038095;28;20076;-72
2022/03/15 06:26:30;;;;;;;73.45;38.10;;;4.70;99.90;;;;;;5021219;28;20037;-73
2022/03/15 06:28:58;;;;;;;77.63;37.53;;;4.80;99.90;;;;;;5038926;28;20037;-72
2022/03/15 06:31:24;;;;;;;72.22;36.00;;;4.80;99.90;;;;;;5021681;28;20409;-73
2022/03/15 06:33:50;;;;;;;67.32;34.78;;;4.80;99.90;;;;;;5055077;28;20093;-73
2022/03/15 06:36:16;;;;;;;75.20;37.45;;;4.90;99.90;;;;;;5020463;28;20096;-74
2022/03/15 06:38:43;;;;;;;70.38;35.95;;;4.90;99.90;;;;;;5037695;28;20052;-73
2022/03/15 06:41:11;;;;;;;70.95;35.80;;;4.90;99.90;;;;;;5038182;28;20113;-73
2022/03/15 06:43:39;;;;;;;67.75;35.58;;;5.00;99.90;;;;;;5038382;28;20037;-73
2022/03/15 06:46:06;;;;;;;70.22;36.60;;;5.00;99.90;;;;;;5054898;28;20044;-73
2022/03/15 06:48:32;;;;;;;66.88;35.05;;;5.00;99.90;;;;;;5054648;28;20168;-73
2022/03/15 06:50:58;;;;;;;66.75;34.88;;;5.00;99.90;;;;;;5055129;28;20037;-73
2022/03/15 06:53:24;;;;;;;65.93;36.05;;;5.00;99.90;;;;;;5055540;28;20033;-75
2022/03/15 06:55:50;;;;;;;69.35;36.15;;;5.10;99.90;;;;;;5055099;28;20029;-75
2022/03/15 06:58:17;;;;;;;64.35;34.22;;;5.10;99.90;;;;;;5055124;28;20033;-73
2022/03/15 07:00:43;;;;;;;65.68;35.13;;;5.20;99.90;;;;;;5037377;28;20041;-73
2022/03/15 07:03:09;;;;;;;58.50;33.85;;;5.20;99.90;;;;;;5054442;28;20037;-73
2022/03/15 07:05:35;;;;;;;75.82;38.03;;;5.30;99.90;;;;;;5020887;28;20042;-74
2022/03/15 07:08:02;;;;;;;73.45;37.20;;;5.30;99.90;;;;;;5054706;28;20032;-73
2022/03/15 07:10:31;;;;;;;66.10;34.53;;;5.30;99.90;;;;;;5020994;28;20041;-74
2022/03/15 07:12:56;;;;;;;69.30;35.67;;;5.40;99.90;;;;;;5038438;28;20041;-74
2022/03/15 07:15:23;;;;;;;73.03;37.15;;;5.40;99.90;;;;;;5038297;28;20037;-72
2022/03/15 07:17:56;;;;;;;70.65;36.50;;;5.50;99.90;;;;;;5020972;28;20084;-72
2022/03/15 07:20:24;;;;;;;65.57;37.30;;;5.40;99.90;;;;;;5021597;28;20056;-72
2022/03/15 07:22:50;;;;;;;71.90;38.90;;;5.50;99.90;;;;;;5037931;28;20041;-73
2022/03/15 07:25:17;;;;;;;73.55;38.78;;;5.50;99.90;;;;;;5037439;28;20132;-74
2022/03/15 07:27:43;;;;;;;68.05;36.75;;;5.60;99.90;;;;;;5037958;28;20041;-72
2022/03/15 07:30:10;;;;;;;63.13;36.75;;;5.60;99.90;;;;;;5037562;28;20037;-73
2022/03/15 07:32:36;;;;;;;59.10;34.97;;;5.70;99.90;;;;;;5021062;28;20048;-74
2022/03/15 07:35:03;;;;;;;69.72;38.80;;;5.70;99.90;;;;;;5055289;28;20033;-74
2022/03/15 07:37:29;;;;;;;70.03;37.20;;;5.80;99.90;;;;;;5037671;28;20037;-73
2022/03/15 07:39:55;;;;;;;73.47;39.58;;;5.80;99.90;;;;;;5037491;28;20033;-74
2022/03/15 07:42:23;;;;;;;73.78;39.22;;;5.80;99.90;;;;;;5054808;28;20037;-74
2022/03/15 07:44:49;;;;;;;70.65;37.97;;;5.80;99.90;;;;;;5055083;28;20047;-73
2022/03/15 07:47:15;;;;;;;76.38;40.53;;;5.90;99.90;;;;;;5021945;28;20053;-73
2022/03/15 07:49:42;;;;;;;72.55;39.60;;;5.90;99.90;;;;;;5025322;28;20045;-74
2022/03/15 07:52:09;;;;;;;70.95;38.70;;;6.00;99.90;;;;;;5025132;28;20472;-73
2022/03/15 07:54:35;;;;;;;63.00;35.90;;;6.00;99.90;;;;;;5025012;28;20033;-76
2022/03/15 07:57:02;;;;;;;73.68;39.53;;;6.00;99.90;;;;;;5041490;28;20068;-73
2022/03/15 07:59:29;;;;;;;65.20;38.03;;;6.00;99.90;;;;;;5041244;28;20044;-74
2022/03/15 08:01:55;;;;;;;67.80;38.95;;;6.10;99.90;;;;;;5041134;28;20544;-72
2022/03/15 08:04:21;;;;;;;59.42;36.83;;;6.20;99.90;;;;;;5025056;28;20038;-74
2022/03/15 08:06:47;;;;;;;64.10;38.58;;;6.20;99.90;;;;;;5058686;28;20037;-74
2022/03/15 08:09:14;;;;;;;65.53;37.85;;;6.30;99.90;;;;;;5025413;28;20044;-73
2022/03/15 08:11:41;;;;;;;60.45;35.95;;;6.30;99.90;;;;;;5041745;28;20052;-73
2022/03/15 08:14:09;;;;;;;59.45;36.50;;;6.40;99.90;;;;;;5058873;28;20026;-74
2022/03/15 08:16:35;;;;;;;63.40;37.88;;;6.30;99.90;;;;;;5058791;28;20057;-73
2022/03/15 08:19:01;;;;;;;63.58;36.33;;;6.40;99.90;;;;;;5025468;28;20109;-75
2022/03/15 08:21:28;;;;;;;57.58;36.30;;;6.50;99.90;;;;;;5025328;28;20049;-73
2022/03/15 08:23:55;;;;;;;62.95;36.42;;;6.50;99.90;;;;;;5042311;28;20044;-73
2022/03/15 08:26:21;;;;;;;61.90;36.25;;;6.50;99.90;;;;;;5058635;28;20044;-73
2022/03/15 08:28:48;;;;;;;61.85;37.28;;;6.60;99.90;;;;;;5059079;28;20060;-76
2022/03/15 08:31:15;;;;;;;62.83;38.05;;;6.60;99.90;;;;;;5058605;28;20061;-74
2022/03/15 08:33:41;;;;;;;60.28;35.45;;;6.60;99.90;;;;;;5058181;28;20063;-73
2022/03/15 08:36:07;;;;;;;62.10;37.15;;;6.70;99.90;;;;;;5025116;28;20039;-72
2022/03/15 08:38:34;;;;;;;61.28;36.00;;;6.70;99.90;;;;;;5025453;28;20040;-73
2022/03/15 08:41:01;;;;;;;57.65;36.20;;;6.80;99.90;;;;;;5042069;28;20040;-72
2022/03/15 08:43:27;;;;;;;63.17;35.08;;;6.80;99.90;;;;;;5042296;28;20045;-73
2022/03/15 08:45:53;;;;;;;63.92;36.20;;;6.80;99.90;;;;;;5041355;28;20096;-73
2022/03/15 08:48:20;;;;;;;59.15;37.10;;;6.80;99.90;;;;;;5058832;28;20102;-73
2022/03/15 08:50:46;;;;;;;55.58;34.85;;;6.90;99.90;;;;;;5031876;28;20026;-74
2022/03/15 08:53:12;;;;;;;56.83;34.13;;;6.90;99.90;;;;;;5037386;28;20060;-73
2022/03/15 08:55:39;;;;;;;54.40;32.60;;;6.90;99.90;;;;;;5038570;28;20042;-75
2022/03/15 08:58:05;;;;;;;52.28;32.88;;;7.00;99.90;;;;;;5038249;28;20073;-73
2022/03/15 09:00:31;;;;;;;50.97;33.13;;;7.00;99.90;;;;;;5020137;28;20064;-73
2022/03/15 09:02:57;;;;;;;55.20;34.40;;;7.10;99.90;;;;;;5052061;28;20097;-76
2022/03/15 09:05:26;;;;;;;57.33;34.30;;;7.10;99.90;;;;;;5035768;28;20061;-74
2022/03/15 09:07:53;;;;;;;53.45;34.38;;;7.20;99.90;;;;;;5023985;28;20038;-74
2022/03/15 09:10:20;;;;;;;59.70;35.30;;;7.30;99.90;;;;;;5030053;28;20064;-73
2022/03/15 09:12:47;;;;;;;54.33;34.90;;;7.30;99.90;;;;;;5043583;28;20033;-73
2022/03/15 09:15:14;;;;;;;56.03;35.67;;;7.30;99.90;;;;;;5023264;28;20034;-73
2022/03/15 09:17:40;;;;;;;54.65;34.13;;;7.40;99.90;;;;;;5038249;28;20105;-75
2022/03/15 09:20:08;;;;;;;53.92;35.95;;;7.40;99.90;;;;;;5021324;28;20042;-73
2022/03/15 09:22:35;;;;;;;59.30;35.08;;;7.50;99.90;;;;;;5025410;28;20077;-75
2022/03/15 09:25:03;;;;;;;52.13;33.03;;;7.60;99.90;;;;;;5040078;28;20037;-73
2022/03/15 09:27:29;;;;;;;53.78;33.10;;;7.60;99.90;;;;;;5057435;28;20037;-75
2022/03/15 09:29:55;;;;;;;52.13;33.72;;;7.60;99.90;;;;;;5039745;28;20068;-74
2022/03/15 09:32:22;;;;;;;53.75;33.55;;;7.70;99.90;;;;;;5024571;28;20064;-75
2022/03/15 09:34:48;;;;;;;54.45;34.70;;;7.70;99.90;;;;;;5024140;28;20021;-73
2022/03/15 09:37:14;;;;;;;52.42;33.63;;;7.80;99.90;;;;;;5040243;28;20033;-74
2022/03/15 09:39:41;;;;;;;48.17;32.17;;;7.80;99.90;;;;;;5040907;28;20033;-74
2022/03/15 09:42:09;;;;;;;46.47;31.45;;;7.80;99.90;;;;;;5040017;28;20068;-74
2022/03/15 09:44:40;;;;;;;51.25;31.48;;;7.90;99.90;;;;;;5057044;28;20038;-74
2022/03/15 09:47:07;;;;;;;46.78;32.00;;;7.90;99.90;;;;;;5057824;28;20029;-75
2022/03/15 09:49:34;;;;;;;44.78;30.52;;;7.90;99.90;;;;;;5040420;28;20018;-74
2022/03/15 09:52:02;;;;;;;45.75;31.35;;;7.90;99.90;;;;;;5040297;28;20064;-73
2022/03/15 09:54:29;;;;;;;48.45;31.17;;;8.00;99.90;;;;;;5057461;28;20060;-74
2022/03/15 09:56:57;;;;;;;48.55;30.92;;;8.00;99.90;;;;;;5057087;28;20093;-75
2022/03/15 09:59:25;;;;;;;47.35;31.45;;;8.00;99.90;;;;;;5040096;28;20045;-76
2022/03/15 10:01:53;;;;;;;47.08;31.45;;;8.10;99.90;;;;;;5057537;28;20380;-74
2022/03/15 10:04:20;;;;;;;42.08;29.27;;;8.10;99.90;;;;;;5039817;28;20037;-75
2022/03/15 10:06:47;;;;;;;44.70;29.95;;;8.10;99.90;;;;;;5056010;28;20037;-73
2022/03/15 10:09:14;;;;;;;49.03;31.25;;;8.20;99.90;;;;;;5039777;28;20040;-73
2022/03/15 10:11:41;;;;;;;50.08;31.88;;;8.20;99.90;;;;;;5038993;28;20041;-73
2022/03/15 10:14:08;;;;;;;48.28;31.60;;;8.20;99.90;;;;;;5039577;28;20030;-74
2022/03/15 10:16:42;;;;;;;46.08;31.80;;;8.30;99.90;;;;;;5056140;28;20061;-74
2022/03/15 10:19:09;;;;;;;43.00;29.33;;;8.30;99.90;;;;;;5040269;28;20041;-73
2022/03/15 10:21:50;;;;;;;46.85;30.88;;;8.40;99.90;;;;;;5039990;28;20068;-75
2022/03/15 10:24:20;;;;;;;39.72;27.75;;;8.40;99.90;;;;;;5053219;28;20039;-74
2022/03/15 10:26:48;;;;;;;45.38;30.45;;;8.50;99.90;;;;;;5054569;28;20045;-74
2022/03/15 10:29:16;;;;;;;45.03;29.73;;;8.50;99.90;;;;;;5057111;28;20029;-74
2022/03/15 10:31:44;;;;;;;40.83;30.35;;;8.60;99.90;;;;;;5057290;28;20056;-75
2022/03/15 10:34:11;;;;;;;43.67;28.98;;;8.60;99.90;;;;;;5023576;28;20048;-75
2022/03/15 10:36:45;;;;;;;44.95;29.92;;;8.70;99.90;;;;;;5053225;28;20068;-75
2022/03/15 10:39:13;;;;;;;41.47;27.30;;;8.80;99.90;;;;;;5043323;28;20041;-76
2022/03/15 10:42:01;;;;;;;40.85;28.25;;;8.90;99.90;;;;;;5055913;28;20052;-74
2022/03/15 10:44:33;;;;;;;;;;;9.00;99.90;;;;;;5040058;28;20037;-74
2022/03/15 10:47:04;;;;;;;;;;;9.00;99.90;;;;;;5023638;28;19940;-74
2022/03/15 10:49:34;;;;;;;42.67;28.10;;;9.10;99.90;;;;;;5056895;28;19952;-75
2022/03/15 10:52:02;;;;;;;43.03;28.35;;;9.10;99.90;;;;;;5057595;28;20049;-76
2022/03/15 10:54:29;;;;;;;42.75;27.17;;;9.20;99.90;;;;;;5039916;28;20067;-75
2022/03/15 10:56:59;;;;;;;41.55;27.50;;;9.30;99.90;;;;;;5055573;28;20030;-75
2022/03/15 10:59:26;;;;;;;44.67;28.02;;;9.30;99.90;;;;;;5039371;28;20097;-74
2022/03/15 11:01:53;;;;;;;41.45;27.35;;;9.40;99.90;;;;;;5057090;28;20022;-76
2022/03/15 11:04:20;;;;;;;44.55;26.95;;;9.50;99.90;;;;;;5056936;28;20049;-74
2022/03/15 11:06:49;;;;;;;38.15;26.08;;;9.50;99.90;;;;;;5039004;28;20037;-76
2022/03/15 11:09:23;;;;;;;36.05;26.77;;;9.60;99.90;;;;;;5040387;28;20061;-75
2022/03/15 11:12:01;;;;;;;41.80;27.23;;;9.70;99.90;;;;;;5039690;28;20068;-75
2022/03/15 11:14:48;;;;;;;42.53;27.00;;;9.80;99.90;;;;;;5039869;28;20071;-77
2022/03/15 11:17:20;;;;;;;38.85;26.73;;;9.80;99.90;;;;;;5056413;28;20049;-75
2022/03/15 11:19:49;;;;;;;37.35;25.63;;;9.90;99.90;;;;;;5023950;28;20075;-75
2022/03/15 11:22:20;;;;;;;40.85;26.42;;;10.00;99.90;;;;;;5039143;28;20499;-74
2022/03/15 11:25:08;;;;;;;34.83;24.52;;;10.00;99.90;;;;;;5037036;28;20037;-74
2022/03/15 11:27:44;;;;;;;36.47;24.30;;;10.20;99.90;;;;;;5056479;28;20036;-74
2022/03/15 11:30:16;;;;;;;36.00;25.40;;;10.20;99.90;;;;;;5056471;28;20093;-74
2022/03/15 11:32:43;;;;;;;34.33;23.92;;;10.30;99.90;;;;;;5056446;28;20034;-75
2022/03/15 11:35:11;;;;;;;35.78;23.27;;;10.40;99.90;;;;;;5056400;28;20018;-75
2022/03/15 11:37:39;;;;;;;32.97;23.55;;;10.40;99.90;;;;;;5039423;28;20033;-74
2022/03/15 11:40:08;;;;;;;37.97;22.65;;;10.50;99.90;;;;;;5039870;28;20048;-74
2022/03/15 11:42:39;;;;;;;34.90;22.92;;;10.60;99.90;;;;;;5039469;28;20117;-74
2022/03/15 11:45:12;;;;;;;31.35;20.85;;;10.70;99.90;;;;;;5056823;28;20029;-76
2022/03/15 11:47:50;;;;;;;33.95;22.65;;;10.70;99.90;;;;;;5056030;28;20029;-75
2022/03/15 11:50:20;;;;;;;35.17;23.42;;;10.70;99.90;;;;;;5057815;28;20032;-76
2022/03/15 12:03:49;;;;;;;32.03;20.88;;;10.90;99.90;;;;;;2905532;26;20057;-75
2022/03/15 12:06:23;;;;;;;35.35;22.00;;;11.00;99.90;;;;;;5000445;28;20106;-78
2022/03/15 12:09:00;;;;;;;29.98;20.90;;;11.10;99.90;;;;;;5001086;28;20034;-75
2022/03/15 12:11:27;;;;;;;31.35;20.08;;;11.10;99.90;;;;;;5017314;28;20098;-75
2022/03/15 12:14:03;;;;;;;33.70;20.60;;;11.10;99.90;;;;;;5016538;28;20073;-73
2022/03/15 12:16:41;;;;;;;29.25;19.25;;;11.20;99.90;;;;;;5000590;28;20022;-73
2022/03/15 12:21:54;;;;;;;30.88;20.38;;;11.30;99.90;;;;;;5017194;28;20049;-74
2022/03/15 12:24:55;;;;;;;30.08;18.75;;;11.40;99.90;;;;;;5000740;28;20058;-75
2022/03/15 12:27:27;;;;;;;26.63;19.33;;;11.40;99.90;;;;;;4983965;28;20030;-77
2022/03/15 12:29:58;;;;;;;30.08;19.38;;;11.40;99.90;;;;;;5000863;28;20117;-74
2022/03/15 12:32:25;;;;;;;29.92;20.58;;;11.40;99.90;;;;;;5016541;28;20029;-72
2022/03/15 12:34:56;;;;;;;29.23;19.63;;;11.50;99.90;;;;;;5001431;28;20053;-73
2022/03/15 12:37:37;;;;;;;27.88;18.27;;;11.40;99.90;;;;;;5020746;28;20030;-72
2022/03/15 12:40:42;;;;;;;31.00;19.52;;;11.60;99.90;;;;;;5003867;28;20033;-74
2022/03/15 12:43:08;;;;;;;27.75;18.90;;;11.60;99.90;;;;;;4987990;28;20457;-75
2022/03/15 12:45:48;;;;;;;26.42;17.85;;;11.70;99.90;;;;;;5004508;28;20240;-75
2022/03/15 12:48:17;;;;;;;29.25;18.27;;;11.80;99.90;;;;;;4988097;28;20042;-75
2022/03/15 12:50:45;;;;;;;32.00;19.15;;;11.90;99.90;;;;;;5004280;28;20031;-76
2022/03/15 12:53:14;;;;;;;30.00;18.38;;;12.00;99.90;;;;;;5004466;28;20034;-75
2022/03/15 12:55:42;;;;;;;28.50;18.63;;;12.00;99.90;;;;;;5020586;28;20073;-75
2022/03/15 12:58:11;;;;;;;27.77;18.05;;;12.00;99.90;;;;;;5019823;28;20276;-76
2022/03/15 13:00:39;;;;;;;27.10;17.17;;;12.10;99.90;;;;;;5020433;28;20026;-75